createdAt,value
2017-08-18T00:00:42.072Z,1007.61
2017-08-18T00:01:42.059Z,1007.6
2017-08-18T00:02:42.056Z,1007.64
2017-08-18T00:03:42.029Z,1007.65
2017-08-18T00:04:42.011Z,1007.7
2017-08-18T00:05:42.001Z,1007.72
2017-08-18T00:06:41.991Z,1007.7
2017-08-18T00:07:41.969Z,1007.75
2017-08-18T00:08:41.958Z,1007.67
2017-08-18T00:09:41.938Z,1007.67
2017-08-18T00:10:41.926Z,1007.64
2017-08-18T00:11:41.917Z,1007.65
2017-08-18T00:12:41.907Z,1007.62
2017-08-18T00:13:41.885Z,1007.66
2017-08-18T00:14:41.870Z,1007.59
2017-08-18T00:15:41.876Z,1007.65
2017-08-18T00:16:41.842Z,1007.67
2017-08-18T00:17:41.828Z,1007.65
2017-08-18T00:18:41.813Z,1007.67
2017-08-18T00:19:41.802Z,1007.69
2017-08-18T00:20:41.787Z,1007.69
2017-08-18T00:21:41.773Z,1007.66
2017-08-18T00:22:41.757Z,1007.68
2017-08-18T00:23:41.746Z,1007.64
2017-08-18T00:24:41.731Z,1007.6
2017-08-18T00:25:41.714Z,1007.58
2017-08-18T00:26:41.703Z,1007.6
2017-08-18T00:27:41.688Z,1007.6
2017-08-18T00:28:41.670Z,1007.61
2017-08-18T00:29:41.656Z,1007.61
2017-08-18T00:30:41.648Z,1007.58
2017-08-18T00:31:41.631Z,1007.6
2017-08-18T00:32:41.613Z,1007.59
2017-08-18T00:33:41.596Z,1007.58
2017-08-18T00:34:41.587Z,1007.57
2017-08-18T00:35:41.582Z,1007.57
2017-08-18T00:36:41.561Z,1007.58
2017-08-18T00:37:41.553Z,1007.58
2017-08-18T00:38:41.530Z,1007.6
2017-08-18T00:39:41.522Z,1007.62
2017-08-18T00:40:41.501Z,1007.59
2017-08-18T00:41:41.491Z,1007.6
2017-08-18T00:42:41.475Z,1007.58
2017-08-18T00:43:41.460Z,1007.54
2017-08-18T00:44:41.448Z,1007.59
2017-08-18T00:45:41.432Z,1007.56
2017-08-18T00:46:41.420Z,1007.53
2017-08-18T00:47:41.401Z,1007.52
2017-08-18T00:48:41.392Z,1007.5
2017-08-18T00:49:41.373Z,1007.45
2017-08-18T00:50:41.360Z,1007.43
2017-08-18T00:51:41.345Z,1007.36
2017-08-18T00:52:41.334Z,1007.38
2017-08-18T00:53:41.323Z,1007.33
2017-08-18T00:54:41.301Z,1007.35
2017-08-18T00:55:41.290Z,1007.3
2017-08-18T00:56:41.282Z,1007.28
2017-08-18T00:57:41.262Z,1007.28
2017-08-18T00:58:41.247Z,1007.3
2017-08-18T00:59:41.230Z,1007.26
2017-08-18T01:00:41.218Z,1007.24
2017-08-18T01:01:41.210Z,1007.26
2017-08-18T01:02:41.189Z,1007.28
2017-08-18T01:03:41.180Z,1007.26
2017-08-18T01:04:41.160Z,1007.28
2017-08-18T01:05:41.152Z,1007.29
2017-08-18T01:06:41.133Z,1007.3
2017-08-18T01:07:41.121Z,1007.28
2017-08-18T01:08:41.104Z,1007.3
2017-08-18T01:09:41.091Z,1007.25
2017-08-18T01:10:41.073Z,1007.23
2017-08-18T01:11:41.061Z,1007.26
2017-08-18T01:12:41.042Z,1007.26
2017-08-18T01:13:41.029Z,1007.24
2017-08-18T01:14:41.019Z,1007.27
2017-08-18T01:15:40.998Z,1007.28
2017-08-18T01:16:40.992Z,1007.3
2017-08-18T01:17:40.970Z,1007.25
2017-08-18T01:18:40.962Z,1007.28
2017-08-18T01:19:40.948Z,1007.29
2017-08-18T01:20:40.930Z,1007.28
2017-08-18T01:21:40.913Z,1007.27
2017-08-18T01:22:40.901Z,1007.24
2017-08-18T01:23:40.891Z,1007.28
2017-08-18T01:24:40.875Z,1007.29
2017-08-18T01:25:40.861Z,1007.29
2017-08-18T01:26:40.850Z,1007.31
2017-08-18T01:27:40.831Z,1007.31
2017-08-18T01:28:40.821Z,1007.28
2017-08-18T01:29:40.814Z,1007.23
2017-08-18T01:30:40.794Z,1007.28
2017-08-18T01:31:40.775Z,1007.24
2017-08-18T01:32:40.763Z,1007.21
2017-08-18T01:33:40.762Z,1007.21
2017-08-18T01:34:40.732Z,1007.21
2017-08-18T01:35:40.719Z,1007.17
2017-08-18T01:36:40.704Z,1007.14
2017-08-18T01:37:40.691Z,1007.11
2017-08-18T01:38:40.675Z,1007.13
2017-08-18T01:39:40.661Z,1007.17
2017-08-18T01:40:40.649Z,1007.14
2017-08-18T01:41:40.649Z,1007.13
2017-08-18T01:42:40.617Z,1007.12
2017-08-18T01:43:40.602Z,1007.05
2017-08-18T01:44:40.592Z,1007.02
2017-08-18T01:45:40.578Z,1007.01
2017-08-18T01:46:40.567Z,1007.01
2017-08-18T01:47:40.550Z,1007.05
2017-08-18T01:48:40.530Z,1007
2017-08-18T01:49:40.519Z,1007
2017-08-18T01:50:40.502Z,1007.03
2017-08-18T01:51:40.589Z,1007.04
2017-08-18T01:52:40.472Z,1007.04
2017-08-18T01:53:40.459Z,1006.98
2017-08-18T01:54:40.440Z,1006.99
2017-08-18T01:55:40.431Z,1007.01
2017-08-18T01:56:40.411Z,1007.02
2017-08-18T01:57:40.399Z,1006.99
2017-08-18T01:58:40.390Z,1006.97
2017-08-18T01:59:40.371Z,1006.97
2017-08-18T02:00:40.354Z,1006.95
2017-08-18T02:01:40.341Z,1006.93
2017-08-18T02:02:40.327Z,1006.86
2017-08-18T02:03:40.312Z,1006.84
2017-08-18T02:04:40.294Z,1006.85
2017-08-18T02:05:40.285Z,1006.81
2017-08-18T02:06:40.270Z,1006.82
2017-08-18T02:07:40.252Z,1006.81
2017-08-18T02:08:40.237Z,1006.85
2017-08-18T02:09:40.226Z,1006.87
2017-08-18T02:10:40.211Z,1006.93
2017-08-18T02:11:40.199Z,1006.92
2017-08-18T02:12:40.180Z,1006.92
2017-08-18T02:13:40.172Z,1007
2017-08-18T02:14:40.153Z,1006.96
2017-08-18T02:15:40.143Z,1006.97
2017-08-18T02:16:40.122Z,1007.02
2017-08-18T02:17:40.108Z,1007.03
2017-08-18T02:18:40.093Z,1007.05
2017-08-18T02:19:40.081Z,1007.06
2017-08-18T02:20:40.070Z,1007.09
2017-08-18T02:21:40.053Z,1007.09
2017-08-18T02:22:40.042Z,1007.08
2017-08-18T02:23:40.028Z,1007.09
2017-08-18T02:24:40.010Z,1007.06
2017-08-18T02:25:39.990Z,1007.02
2017-08-18T02:26:39.975Z,1007.02
2017-08-18T02:27:39.961Z,1006.98
2017-08-18T02:28:39.951Z,1006.98
2017-08-18T02:29:39.929Z,1006.96
2017-08-18T02:30:39.919Z,1006.96
2017-08-18T02:31:39.906Z,1006.96
2017-08-18T02:32:39.892Z,1006.94
2017-08-18T02:33:39.872Z,1006.95
2017-08-18T02:34:39.856Z,1006.96
2017-08-18T02:35:39.846Z,1006.98
2017-08-18T02:36:39.832Z,1006.97
2017-08-18T02:37:39.820Z,1006.94
2017-08-18T02:38:39.800Z,1006.95
2017-08-18T02:39:39.792Z,1006.97
2017-08-18T02:40:39.771Z,1006.95
2017-08-18T02:41:39.761Z,1006.96
2017-08-18T02:42:39.741Z,1007.01
2017-08-18T02:43:39.730Z,1007.07
2017-08-18T02:44:39.711Z,1007.12
2017-08-18T02:45:39.701Z,1007.17
2017-08-18T02:46:39.683Z,1007.17
2017-08-18T02:47:39.680Z,1007.15
2017-08-18T02:48:39.654Z,1007.11
2017-08-18T02:49:39.639Z,1007.07
2017-08-18T02:50:39.627Z,1007.06
2017-08-18T02:51:39.611Z,1007.05
2017-08-18T02:52:39.601Z,1007.05
2017-08-18T02:53:39.581Z,1007.05
2017-08-18T02:54:39.564Z,1007.01
2017-08-18T02:55:39.551Z,1006.99
2017-08-18T02:56:39.534Z,1006.97
2017-08-18T02:57:39.521Z,1007.01
2017-08-18T02:58:39.505Z,1006.99
2017-08-18T02:59:39.489Z,1006.96
2017-08-18T03:00:39.478Z,1006.94
2017-08-18T03:01:39.464Z,1006.92
2017-08-18T03:02:39.446Z,1006.93
2017-08-18T03:03:39.434Z,1006.9
2017-08-18T03:04:39.419Z,1006.88
2017-08-18T03:05:39.402Z,1006.85
2017-08-18T03:06:39.390Z,1006.86
2017-08-18T03:07:39.375Z,1006.89
2017-08-18T03:08:39.359Z,1006.89
2017-08-18T03:09:39.347Z,1006.93
2017-08-18T03:10:39.332Z,1006.92
2017-08-18T03:11:39.319Z,1006.94
2017-08-18T03:12:39.301Z,1006.94
2017-08-18T03:13:39.284Z,1006.99
2017-08-18T03:14:39.266Z,1007
2017-08-18T03:15:39.261Z,1007.07
2017-08-18T03:16:39.238Z,1007.08
2017-08-18T03:17:39.230Z,1007.08
2017-08-18T03:18:39.219Z,1007.03
2017-08-18T03:19:39.194Z,1007.05
2017-08-18T03:20:39.179Z,1007
2017-08-18T03:21:39.166Z,1006.99
2017-08-18T03:22:39.284Z,1006.96
2017-08-18T03:23:39.134Z,1006.93
2017-08-18T03:24:39.121Z,1006.94
2017-08-18T03:25:39.110Z,1007.01
2017-08-18T03:26:39.103Z,1006.97
2017-08-18T03:27:39.071Z,1006.93
2017-08-18T03:28:39.060Z,1006.92
2017-08-18T03:29:39.049Z,1006.88
2017-08-18T03:30:39.129Z,1006.87
2017-08-18T03:31:39.014Z,1006.88
2017-08-18T03:32:39.014Z,1006.84
2017-08-18T03:33:38.989Z,1006.85
2017-08-18T03:34:39.070Z,1006.86
2017-08-18T03:35:38.951Z,1006.8
2017-08-18T03:36:38.942Z,1006.78
2017-08-18T03:37:38.921Z,1006.8
2017-08-18T03:38:38.907Z,1006.77
2017-08-18T03:39:38.891Z,1006.78
2017-08-18T03:40:38.879Z,1006.82
2017-08-18T03:41:38.862Z,1006.79
2017-08-18T03:42:38.849Z,1006.8
2017-08-18T03:43:38.832Z,1006.81
2017-08-18T03:44:38.855Z,1006.74
2017-08-18T03:45:38.801Z,1006.74
2017-08-18T03:46:38.790Z,1006.73
2017-08-18T03:47:38.770Z,1006.7
2017-08-18T03:48:38.763Z,1006.71
2017-08-18T03:49:38.740Z,1006.71
2017-08-18T03:50:38.724Z,1006.69
2017-08-18T03:51:38.713Z,1006.7
2017-08-18T03:52:38.699Z,1006.74
2017-08-18T03:53:38.682Z,1006.77
2017-08-18T03:54:38.666Z,1006.78
2017-08-18T03:55:38.650Z,1006.76
2017-08-18T03:56:38.635Z,1006.8
2017-08-18T03:57:38.621Z,1006.85
2017-08-18T03:58:38.612Z,1006.86
2017-08-18T03:59:38.590Z,1006.84
2017-08-18T04:00:38.581Z,1006.89
2017-08-18T04:01:38.558Z,1006.86
2017-08-18T04:02:38.552Z,1006.89
2017-08-18T04:03:38.531Z,1006.92
2017-08-18T04:04:38.521Z,1006.88
2017-08-18T04:05:38.501Z,1006.95
2017-08-18T04:06:38.491Z,1007.01
2017-08-18T04:07:38.472Z,1007.03
2017-08-18T04:08:38.454Z,1007.03
2017-08-18T04:09:38.440Z,1007.02
2017-08-18T04:10:38.424Z,1006.98
2017-08-18T04:11:38.408Z,1006.94
2017-08-18T04:12:38.392Z,1006.91
2017-08-18T04:13:38.377Z,1006.89
2017-08-18T04:14:38.371Z,1006.93
2017-08-18T04:15:38.347Z,1006.92
2017-08-18T04:16:38.341Z,1007.02
2017-08-18T04:17:38.320Z,1007
2017-08-18T04:18:38.307Z,1006.95
2017-08-18T04:19:38.291Z,1006.92
2017-08-18T04:20:38.277Z,1006.93
2017-08-18T04:21:38.258Z,1006.91
2017-08-18T04:22:38.246Z,1006.87
2017-08-18T04:23:38.228Z,1006.86
2017-08-18T04:24:38.213Z,1006.85
2017-08-18T04:25:38.209Z,1006.9
2017-08-18T04:26:38.181Z,1006.91
2017-08-18T04:27:38.174Z,1006.95
2017-08-18T04:28:38.159Z,1006.98
2017-08-18T04:29:38.140Z,1006.95
2017-08-18T04:30:38.128Z,1006.94
2017-08-18T04:31:38.113Z,1006.99
2017-08-18T04:32:38.097Z,1006.98
2017-08-18T04:33:38.086Z,1006.98
2017-08-18T04:34:38.064Z,1006.95
2017-08-18T04:35:38.050Z,1006.96
2017-08-18T04:36:38.043Z,1006.96
2017-08-18T04:37:38.021Z,1007.02
2017-08-18T04:38:38.013Z,1006.98
2017-08-18T04:39:37.990Z,1006.94
2017-08-18T04:40:37.977Z,1006.89
2017-08-18T04:41:37.961Z,1006.89
2017-08-18T04:42:37.947Z,1006.86
2017-08-18T04:43:37.939Z,1006.82
2017-08-18T04:44:37.923Z,1006.76
2017-08-18T04:45:37.907Z,1006.77
2017-08-18T04:46:37.891Z,1006.73
2017-08-18T04:47:37.877Z,1006.78
2017-08-18T04:48:37.858Z,1006.79
2017-08-18T04:49:37.844Z,1006.76
2017-08-18T04:50:37.831Z,1006.76
2017-08-18T04:51:37.822Z,1006.8
2017-08-18T04:52:37.803Z,1006.8
2017-08-18T04:53:37.791Z,1006.85
2017-08-18T04:54:37.773Z,1006.87
2017-08-18T04:55:37.754Z,1006.88
2017-08-18T04:56:37.751Z,1006.89
2017-08-18T04:57:37.730Z,1006.95
2017-08-18T04:58:37.711Z,1006.98
2017-08-18T04:59:37.700Z,1006.93
2017-08-18T05:00:37.681Z,1006.94
2017-08-18T05:01:37.668Z,1006.96
2017-08-18T05:02:37.654Z,1006.99
2017-08-18T05:03:37.638Z,1007
2017-08-18T05:04:37.628Z,1006.96
2017-08-18T05:05:37.609Z,1006.95
2017-08-18T05:06:37.602Z,1006.96
2017-08-18T05:07:37.584Z,1006.94
2017-08-18T05:08:37.577Z,1006.95
2017-08-18T05:09:37.552Z,1007
2017-08-18T05:10:37.544Z,1006.99
2017-08-18T05:11:37.522Z,1007.05
2017-08-18T05:12:37.512Z,1007.1
2017-08-18T05:13:37.551Z,1007.13
2017-08-18T05:14:37.479Z,1007.14
2017-08-18T05:15:37.471Z,1007.14
2017-08-18T05:16:37.451Z,1007.16
2017-08-18T05:17:37.442Z,1007.2
2017-08-18T05:18:37.422Z,1007.17
2017-08-18T05:19:37.413Z,1007.18
2017-08-18T05:20:37.390Z,1007.17
2017-08-18T05:21:37.392Z,1007.14
2017-08-18T05:22:37.362Z,1007.15
2017-08-18T05:23:37.402Z,1007.15
2017-08-18T05:24:37.342Z,1007.12
2017-08-18T05:25:37.419Z,1007.13
2017-08-18T05:26:37.308Z,1007.11
2017-08-18T05:27:37.291Z,1007.09
2017-08-18T05:28:37.280Z,1007.09
2017-08-18T05:29:37.263Z,1007.09
2017-08-18T05:30:37.253Z,1007.02
2017-08-18T05:31:37.234Z,1007
2017-08-18T05:32:37.212Z,1006.98
2017-08-18T05:33:37.202Z,1007.02
2017-08-18T05:34:37.194Z,1006.93
2017-08-18T05:35:37.175Z,1006.92
2017-08-18T05:36:37.158Z,1006.92
2017-08-18T05:37:37.145Z,1006.9
2017-08-18T05:38:37.127Z,1006.93
2017-08-18T05:39:37.162Z,1006.93
2017-08-18T05:40:37.101Z,1006.92
2017-08-18T05:41:37.082Z,1007.01
2017-08-18T05:42:37.070Z,1007.01
2017-08-18T05:43:37.102Z,1007.02
2017-08-18T05:44:37.044Z,1006.97
2017-08-18T05:45:37.022Z,1006.96
2017-08-18T05:46:37.014Z,1006.95
2017-08-18T05:47:36.999Z,1006.96
2017-08-18T05:48:36.982Z,1006.96
2017-08-18T05:49:37.017Z,1007
2017-08-18T05:50:36.952Z,1006.94
2017-08-18T05:51:36.943Z,1006.95
2017-08-18T05:52:36.921Z,1006.93
2017-08-18T05:53:36.933Z,1006.97
2017-08-18T05:54:36.889Z,1006.97
2017-08-18T05:55:36.873Z,1006.98
2017-08-18T05:56:36.858Z,1006.98
2017-08-18T05:57:36.845Z,1006.97
2017-08-18T05:58:36.833Z,1006.92
2017-08-18T05:59:36.817Z,1006.92
2017-08-18T06:00:36.799Z,1006.89
2017-08-18T06:01:36.791Z,1006.85
2017-08-18T06:02:36.772Z,1006.81
2017-08-18T06:03:36.769Z,1006.77
2017-08-18T06:04:36.754Z,1006.79
2017-08-18T06:05:36.722Z,1006.78
2017-08-18T06:06:36.713Z,1006.75
2017-08-18T06:07:36.695Z,1006.73
2017-08-18T06:08:36.682Z,1006.66
2017-08-18T06:09:36.669Z,1006.61
2017-08-18T06:10:36.652Z,1006.59
2017-08-18T06:11:36.643Z,1006.64
2017-08-18T06:12:36.621Z,1006.69
2017-08-18T06:13:36.613Z,1006.74
2017-08-18T06:14:36.604Z,1006.74
2017-08-18T06:15:36.585Z,1006.78
2017-08-18T06:16:36.571Z,1006.77
2017-08-18T06:17:36.554Z,1006.75
2017-08-18T06:18:36.541Z,1006.75
2017-08-18T06:19:36.522Z,1006.75
2017-08-18T06:20:36.506Z,1006.72
2017-08-18T06:21:36.491Z,1006.69
2017-08-18T06:22:36.481Z,1006.76
2017-08-18T06:23:36.472Z,1006.79
2017-08-18T06:24:36.454Z,1006.83
2017-08-18T06:25:36.431Z,1006.83
2017-08-18T06:26:36.429Z,1006.77
2017-08-18T06:27:36.403Z,1006.66
2017-08-18T06:28:36.389Z,1006.67
2017-08-18T06:29:36.372Z,1006.69
2017-08-18T06:30:36.358Z,1006.75
2017-08-18T06:31:36.341Z,1006.81
2017-08-18T06:32:36.330Z,1006.8
2017-08-18T06:33:36.322Z,1006.83
2017-08-18T06:34:36.299Z,1006.78
2017-08-18T06:35:36.284Z,1006.7
2017-08-18T06:36:36.270Z,1006.65
2017-08-18T06:37:36.262Z,1006.77
2017-08-18T06:38:36.240Z,1006.79
2017-08-18T06:39:36.229Z,1006.76
2017-08-18T06:40:36.212Z,1006.74
2017-08-18T06:41:36.202Z,1006.73
2017-08-18T06:42:36.182Z,1006.75
2017-08-18T06:43:36.173Z,1006.77
2017-08-18T06:44:36.149Z,1006.72
2017-08-18T06:45:36.158Z,1006.7
2017-08-18T06:46:36.120Z,1006.67
2017-08-18T06:47:36.104Z,1006.62
2017-08-18T06:48:36.092Z,1006.63
2017-08-18T06:49:36.078Z,1006.64
2017-08-18T06:50:36.066Z,1006.63
2017-08-18T06:51:36.044Z,1006.64
2017-08-18T06:52:36.034Z,1006.61
2017-08-18T06:53:36.022Z,1006.58
2017-08-18T06:54:36.006Z,1006.59
2017-08-18T06:55:35.989Z,1006.56
2017-08-18T06:56:35.973Z,1006.59
2017-08-18T06:57:35.963Z,1006.57
2017-08-18T06:58:35.942Z,1006.59
2017-08-18T06:59:35.926Z,1006.59
2017-08-18T07:00:35.909Z,1006.54
2017-08-18T07:01:35.901Z,1006.57
2017-08-18T07:02:35.886Z,1006.6
2017-08-18T07:03:35.864Z,1006.61
2017-08-18T07:04:35.855Z,1006.63
2017-08-18T07:05:35.845Z,1006.6
2017-08-18T07:06:35.823Z,1006.62
2017-08-18T07:07:35.816Z,1006.6
2017-08-18T07:08:35.795Z,1006.56
2017-08-18T07:09:35.781Z,1006.62
2017-08-18T07:10:35.762Z,1006.61
2017-08-18T07:11:35.751Z,1006.59
2017-08-18T07:12:35.731Z,1006.61
2017-08-18T07:13:35.721Z,1006.66
2017-08-18T07:14:35.705Z,1006.69
2017-08-18T07:15:35.703Z,1006.67
2017-08-18T07:16:35.670Z,1006.67
2017-08-18T07:17:35.659Z,1006.67
2017-08-18T07:18:35.642Z,1006.7
2017-08-18T07:19:35.632Z,1006.71
2017-08-18T07:20:35.711Z,1006.74
2017-08-18T07:21:35.601Z,1006.74
2017-08-18T07:22:35.583Z,1006.73
2017-08-18T07:23:35.589Z,1006.72
2017-08-18T07:24:35.552Z,1006.72
2017-08-18T07:25:35.538Z,1006.7
2017-08-18T07:26:35.572Z,1006.63
2017-08-18T07:27:35.514Z,1006.59
2017-08-18T07:28:35.543Z,1006.55
2017-08-18T07:29:35.486Z,1006.58
2017-08-18T07:30:35.565Z,1006.6
2017-08-18T07:31:35.450Z,1006.58
2017-08-18T07:32:35.439Z,1006.61
2017-08-18T07:33:35.420Z,1006.63
2017-08-18T07:34:35.411Z,1006.65
2017-08-18T07:35:35.390Z,1006.68
2017-08-18T07:36:35.373Z,1006.68
2017-08-18T07:37:35.361Z,1006.68
2017-08-18T07:38:35.350Z,1006.63
2017-08-18T07:39:35.335Z,1006.64
2017-08-18T07:40:35.330Z,1006.68
2017-08-18T07:41:35.308Z,1006.78
2017-08-18T07:42:35.291Z,1006.88
2017-08-18T07:43:35.276Z,1006.93
2017-08-18T07:44:35.260Z,1006.95
2017-08-18T07:45:35.247Z,1006.89
2017-08-18T07:46:35.230Z,1006.92
2017-08-18T07:47:35.225Z,1006.92
2017-08-18T07:48:35.208Z,1006.95
2017-08-18T07:49:35.191Z,1006.97
2017-08-18T07:50:35.180Z,1006.99
2017-08-18T07:51:35.166Z,1007.03
2017-08-18T07:52:35.151Z,1007.04
2017-08-18T07:53:35.129Z,1007
2017-08-18T07:54:35.115Z,1006.96
2017-08-18T07:55:35.100Z,1006.91
2017-08-18T07:56:35.089Z,1006.9
2017-08-18T07:57:35.071Z,1006.89
2017-08-18T07:58:35.061Z,1006.89
2017-08-18T07:59:35.050Z,1006.93
2017-08-18T08:00:35.041Z,1006.98
2017-08-18T08:01:35.018Z,1007.03
2017-08-18T08:02:35.010Z,1006.99
2017-08-18T08:03:34.992Z,1006.97
2017-08-18T08:04:34.980Z,1006.95
2017-08-18T08:05:34.970Z,1006.92
2017-08-18T08:06:34.950Z,1006.95
2017-08-18T08:07:34.930Z,1006.9
2017-08-18T08:08:34.921Z,1006.9
2017-08-18T08:09:34.909Z,1006.83
2017-08-18T08:10:34.889Z,1006.8
2017-08-18T08:11:34.880Z,1006.8
2017-08-18T08:12:34.868Z,1006.78
2017-08-18T08:13:34.849Z,1006.78
2017-08-18T08:14:34.849Z,1006.76
2017-08-18T08:15:34.824Z,1006.74
2017-08-18T08:16:34.809Z,1006.72
2017-08-18T08:17:34.794Z,1006.7
2017-08-18T08:18:34.780Z,1006.64
2017-08-18T08:19:34.770Z,1006.63
2017-08-18T08:20:34.751Z,1006.64
2017-08-18T08:21:34.740Z,1006.62
2017-08-18T08:22:34.727Z,1006.56
2017-08-18T08:23:34.711Z,1006.52
2017-08-18T08:24:34.698Z,1006.54
2017-08-18T08:25:34.680Z,1006.56
2017-08-18T08:26:34.666Z,1006.55
2017-08-18T08:27:34.654Z,1006.52
2017-08-18T08:28:34.638Z,1006.48
2017-08-18T08:29:34.625Z,1006.46
2017-08-18T08:30:34.617Z,1006.43
2017-08-18T08:31:34.599Z,1006.38
2017-08-18T08:32:34.583Z,1006.36
2017-08-18T08:33:34.569Z,1006.36
2017-08-18T08:34:34.559Z,1006.29
2017-08-18T08:35:34.541Z,1006.28
2017-08-18T08:36:34.529Z,1006.27
2017-08-18T08:37:34.520Z,1006.31
2017-08-18T08:38:34.500Z,1006.33
2017-08-18T08:39:34.485Z,1006.37
2017-08-18T08:40:34.470Z,1006.39
2017-08-18T08:41:34.462Z,1006.4
2017-08-18T08:42:34.450Z,1006.45
2017-08-18T08:43:34.458Z,1006.49
2017-08-18T08:44:34.417Z,1006.51
2017-08-18T08:45:34.410Z,1006.46
2017-08-18T08:46:34.390Z,1006.49
2017-08-18T08:47:34.375Z,1006.45
2017-08-18T08:48:34.369Z,1006.43
2017-08-18T08:49:34.352Z,1006.44
2017-08-18T08:50:34.334Z,1006.46
2017-08-18T08:51:34.334Z,1006.47
2017-08-18T08:52:34.310Z,1006.5
2017-08-18T08:53:34.293Z,1006.47
2017-08-18T08:54:34.290Z,1006.51
2017-08-18T08:55:34.270Z,1006.5
2017-08-18T08:56:34.256Z,1006.45
2017-08-18T08:57:34.239Z,1006.44
2017-08-18T08:58:34.224Z,1006.45
2017-08-18T08:59:34.218Z,1006.48
2017-08-18T09:00:34.198Z,1006.5
2017-08-18T09:01:34.189Z,1006.52
2017-08-18T09:02:34.172Z,1006.56
2017-08-18T09:03:34.158Z,1006.49
2017-08-18T09:04:34.140Z,1006.49
2017-08-18T09:05:34.126Z,1006.37
2017-08-18T09:06:34.120Z,1006.38
2017-08-18T09:07:34.104Z,1006.4
2017-08-18T09:08:34.089Z,1006.42
2017-08-18T09:09:34.071Z,1006.42
2017-08-18T09:10:34.058Z,1006.47
2017-08-18T09:11:34.049Z,1006.47
2017-08-18T09:12:34.033Z,1006.49
2017-08-18T09:13:34.019Z,1006.51
2017-08-18T09:14:34.008Z,1006.47
2017-08-18T09:15:33.998Z,1006.53
2017-08-18T09:16:33.979Z,1006.5
2017-08-18T09:17:33.969Z,1006.49
2017-08-18T09:18:33.957Z,1006.51
2017-08-18T09:19:33.943Z,1006.53
2017-08-18T09:20:33.929Z,1006.48
2017-08-18T09:21:33.920Z,1006.49
2017-08-18T09:22:33.899Z,1006.53
2017-08-18T09:23:33.889Z,1006.45
2017-08-18T09:24:33.876Z,1006.49
2017-08-18T09:25:33.868Z,1006.47
2017-08-18T09:26:33.847Z,1006.38
2017-08-18T09:27:33.833Z,1006.4
2017-08-18T09:28:33.824Z,1006.44
2017-08-18T09:29:33.806Z,1006.42
2017-08-18T09:30:33.797Z,1006.41
2017-08-18T09:31:33.787Z,1006.36
2017-08-18T09:32:33.778Z,1006.32
2017-08-18T09:33:33.755Z,1006.36
2017-08-18T09:34:33.745Z,1006.4
2017-08-18T09:35:33.732Z,1006.34
2017-08-18T09:36:33.729Z,1006.35
2017-08-18T09:37:33.710Z,1006.34
2017-08-18T09:38:33.692Z,1006.27
2017-08-18T09:39:33.689Z,1006.22
2017-08-18T09:40:33.665Z,1006.27
2017-08-18T09:41:33.651Z,1006.3
2017-08-18T09:42:33.636Z,1006.29
2017-08-18T09:43:33.631Z,1006.28
2017-08-18T09:44:33.615Z,1006.27
2017-08-18T09:45:33.608Z,1006.24
2017-08-18T09:46:33.590Z,1006.24
2017-08-18T09:47:33.576Z,1006.28
2017-08-18T09:48:33.560Z,1006.22
2017-08-18T09:49:33.550Z,1006.15
2017-08-18T09:50:33.538Z,1006.13
2017-08-18T09:51:33.519Z,1006.07
2017-08-18T09:52:33.521Z,1006.05
2017-08-18T09:53:33.497Z,1006.06
2017-08-18T09:54:33.485Z,1006.04
2017-08-18T09:55:33.474Z,1006.05
2017-08-18T09:56:33.461Z,1006.04
2017-08-18T09:57:33.443Z,1005.94
2017-08-18T09:58:33.426Z,1005.93
2017-08-18T09:59:33.417Z,1005.87
2017-08-18T10:00:33.412Z,1005.88
2017-08-18T10:01:33.386Z,1005.89
2017-08-18T10:02:33.378Z,1005.92
2017-08-18T10:03:33.363Z,1005.88
2017-08-18T10:04:33.346Z,1005.88
2017-08-18T10:05:33.339Z,1005.87
2017-08-18T10:06:33.325Z,1005.89
2017-08-18T10:07:33.317Z,1005.88
2017-08-18T10:08:33.300Z,1005.89
2017-08-18T10:09:33.287Z,1005.88
2017-08-18T10:10:33.268Z,1005.89
2017-08-18T10:11:33.255Z,1005.84
2017-08-18T10:12:33.245Z,1005.8
2017-08-18T10:13:33.226Z,1005.8
2017-08-18T10:14:33.221Z,1005.79
2017-08-18T10:15:33.206Z,1005.8
2017-08-18T10:16:33.239Z,1005.79
2017-08-18T10:17:33.176Z,1005.86
2017-08-18T10:18:33.171Z,1005.88
2017-08-18T10:19:33.153Z,1005.92
2017-08-18T10:20:33.136Z,1005.9
2017-08-18T10:21:33.129Z,1005.85
2017-08-18T10:22:33.112Z,1005.86
2017-08-18T10:23:33.106Z,1005.86
2017-08-18T10:24:33.116Z,1005.86
2017-08-18T10:25:33.073Z,1005.87
2017-08-18T10:26:33.069Z,1005.89
2017-08-18T10:27:33.049Z,1005.89
2017-08-18T10:28:33.034Z,1005.84
2017-08-18T10:29:33.019Z,1005.82
2017-08-18T10:30:33.010Z,1005.85
2017-08-18T10:31:32.995Z,1005.82
2017-08-18T10:32:32.984Z,1005.78
2017-08-18T10:33:32.964Z,1005.82
2017-08-18T10:34:32.956Z,1005.8
2017-08-18T10:35:32.942Z,1005.79
2017-08-18T10:36:32.930Z,1005.82
2017-08-18T10:37:32.916Z,1005.78
2017-08-18T10:38:32.906Z,1005.79
2017-08-18T10:39:32.897Z,1005.73
2017-08-18T10:40:32.887Z,1005.74
2017-08-18T10:41:32.868Z,1005.79
2017-08-18T10:42:32.850Z,1005.77
2017-08-18T10:43:32.839Z,1005.8
2017-08-18T10:44:32.829Z,1005.79
2017-08-18T10:45:32.818Z,1005.83
2017-08-18T10:46:32.806Z,1005.83
2017-08-18T10:47:32.787Z,1005.85
2017-08-18T10:48:32.786Z,1005.89
2017-08-18T10:49:32.768Z,1005.85
2017-08-18T10:50:32.751Z,1005.87
2017-08-18T10:51:32.739Z,1005.85
2017-08-18T10:52:32.737Z,1005.89
2017-08-18T10:53:32.719Z,1005.84
2017-08-18T10:54:32.703Z,1005.86
2017-08-18T10:55:32.689Z,1005.89
2017-08-18T10:56:32.682Z,1005.88
2017-08-18T10:57:32.661Z,1005.83
2017-08-18T10:58:32.655Z,1005.81
2017-08-18T10:59:32.637Z,1005.81
2017-08-18T11:00:32.627Z,1005.82
2017-08-18T11:01:32.619Z,1005.81
2017-08-18T11:02:32.599Z,1005.76
2017-08-18T11:03:32.586Z,1005.78
2017-08-18T11:04:32.580Z,1005.78
2017-08-18T11:05:32.558Z,1005.77
2017-08-18T11:06:32.545Z,1005.78
2017-08-18T11:07:32.541Z,1005.78
2017-08-18T11:08:32.528Z,1005.77
2017-08-18T11:09:32.510Z,1005.76
2017-08-18T11:10:32.499Z,1005.75
2017-08-18T11:11:32.486Z,1005.68
2017-08-18T11:12:32.470Z,1005.66
2017-08-18T11:13:32.460Z,1005.63
2017-08-18T11:14:32.442Z,1005.58
2017-08-18T11:15:32.426Z,1005.58
2017-08-18T11:16:32.418Z,1005.56
2017-08-18T11:17:32.410Z,1005.56
2017-08-18T11:18:32.390Z,1005.59
2017-08-18T11:19:32.381Z,1005.59
2017-08-18T11:20:32.365Z,1005.54
2017-08-18T11:21:32.359Z,1005.55
2017-08-18T11:22:32.341Z,1005.58
2017-08-18T11:23:32.333Z,1005.57
2017-08-18T11:24:32.318Z,1005.57
2017-08-18T11:25:32.301Z,1005.57
2017-08-18T11:26:32.284Z,1005.55
2017-08-18T11:27:32.280Z,1005.55
2017-08-18T11:28:32.263Z,1005.53
2017-08-18T11:29:32.250Z,1005.57
2017-08-18T11:30:32.237Z,1005.55
2017-08-18T11:31:32.224Z,1005.53
2017-08-18T11:32:32.209Z,1005.58
2017-08-18T11:33:32.199Z,1005.56
2017-08-18T11:34:32.191Z,1005.59
2017-08-18T11:35:32.179Z,1005.62
2017-08-18T11:36:32.159Z,1005.63
2017-08-18T11:37:32.151Z,1005.63
2017-08-18T11:38:32.146Z,1005.65
2017-08-18T11:39:32.123Z,1005.63
2017-08-18T11:40:32.105Z,1005.62
2017-08-18T11:41:32.110Z,1005.65
2017-08-18T11:42:32.090Z,1005.63
2017-08-18T11:43:32.079Z,1005.66
2017-08-18T11:44:32.060Z,1005.67
2017-08-18T11:45:32.051Z,1005.67
2017-08-18T11:46:32.037Z,1005.63
2017-08-18T11:47:32.019Z,1005.6
2017-08-18T11:48:32.006Z,1005.62
2017-08-18T11:49:32.002Z,1005.64
2017-08-18T11:50:31.983Z,1005.67
2017-08-18T11:51:31.969Z,1005.62
2017-08-18T11:52:31.963Z,1005.59
2017-08-18T11:53:31.943Z,1005.61
2017-08-18T11:54:31.929Z,1005.62
2017-08-18T11:55:31.915Z,1005.62
2017-08-18T11:56:31.907Z,1005.6
2017-08-18T11:57:31.889Z,1005.57
2017-08-18T11:58:31.878Z,1005.59
2017-08-18T11:59:31.867Z,1005.59
2017-08-18T12:00:31.860Z,1005.61
2017-08-18T12:01:31.838Z,1005.64
2017-08-18T12:02:31.830Z,1005.64
2017-08-18T12:03:31.818Z,1005.66
2017-08-18T12:04:31.811Z,1005.64
2017-08-18T12:05:31.790Z,1005.64
2017-08-18T12:06:31.778Z,1005.62
2017-08-18T12:07:31.771Z,1005.62
2017-08-18T12:08:31.757Z,1005.66